createdAt,value
2018-03-02T00:01:08.063Z,32.83
2018-03-02T00:03:49.092Z,29.40
2018-03-02T00:06:24.385Z,34.95
2018-03-02T00:09:05.381Z,29.85
2018-03-02T00:11:39.684Z,29.17
2018-03-02T00:14:18.446Z,25.33
2018-03-02T00:16:52.089Z,34.90
2018-03-02T00:19:25.805Z,28.30
2018-03-02T00:21:59.951Z,37.03
2018-03-02T00:24:34.159Z,30.65
2018-03-02T00:27:13.636Z,39.75
2018-03-02T00:29:53.214Z,30.10
2018-03-02T00:32:32.268Z,31.70
2018-03-02T00:35:11.760Z,30.90
2018-03-02T00:37:47.242Z,27.35
2018-03-02T00:40:26.170Z,35.92
2018-03-02T00:43:07.230Z,26.20
2018-03-02T00:45:45.478Z,27.95
2018-03-02T00:48:26.721Z,37.17
2018-03-02T00:51:05.744Z,35.72
2018-03-02T00:53:43.466Z,34.15
2018-03-02T00:56:23.298Z,33.33
2018-03-02T00:59:02.961Z,36.05
2018-03-02T01:01:42.031Z,37.55
2018-03-02T01:04:20.549Z,27.15
2018-03-02T01:07:01.037Z,51.97
2018-03-02T01:09:38.658Z,34.58
2018-03-02T01:12:17.391Z,30.95
2018-03-02T01:14:56.371Z,33.22
2018-03-02T01:17:36.408Z,33.47
2018-03-02T01:20:15.408Z,38.05
2018-03-02T01:22:56.073Z,36.53
2018-03-02T01:25:35.726Z,34.28
2018-03-02T01:28:15.006Z,27.55
2018-03-02T01:30:55.886Z,29.85
2018-03-02T01:33:34.740Z,33.50
2018-03-02T01:36:14.884Z,35.08
2018-03-02T01:38:55.284Z,30.88
2018-03-02T01:41:34.287Z,35.38
2018-03-02T01:44:12.835Z,42.60
2018-03-02T01:46:51.152Z,37.08
2018-03-02T01:49:30.340Z,27.90
2018-03-02T01:52:07.972Z,34.65
2018-03-02T01:54:47.175Z,36.85
2018-03-02T01:57:22.948Z,31.65
2018-03-02T02:00:03.732Z,37.03
2018-03-02T02:02:44.218Z,26.90
2018-03-02T02:05:24.619Z,28.85
2018-03-02T02:08:02.896Z,32.30
2018-03-02T02:10:40.474Z,36.80
2018-03-02T02:13:18.127Z,33.75
2018-03-02T02:15:56.740Z,32.28
2018-03-02T02:18:37.399Z,38.67
2018-03-02T02:21:18.833Z,30.02
2018-03-02T02:23:58.904Z,27.65
2018-03-02T02:26:37.829Z,32.55
2018-03-02T02:29:17.147Z,35.85
2018-03-02T02:31:54.549Z,32.63
2018-03-02T02:34:34.284Z,30.30
2018-03-02T02:37:12.103Z,31.02
2018-03-02T02:39:51.240Z,37.38
2018-03-02T02:42:31.324Z,42.25
2018-03-02T02:45:10.395Z,30.67
2018-03-02T02:47:48.665Z,25.85
2018-03-02T02:50:22.579Z,31.80
2018-03-02T02:53:01.859Z,24.17
2018-03-02T02:55:41.343Z,32.15
2018-03-02T02:58:20.647Z,32.38
2018-03-02T03:01:00.612Z,36.95
2018-03-02T03:03:41.003Z,32.75
2018-03-02T03:06:20.051Z,28.30
2018-03-02T03:09:01.417Z,40.65
2018-03-02T03:11:34.953Z,22.35
2018-03-02T03:14:14.140Z,30.92
2018-03-02T03:16:53.827Z,37.45
2018-03-02T03:19:31.456Z,30.50
2018-03-02T03:22:12.875Z,36.25
2018-03-02T03:24:51.747Z,34.38
2018-03-02T03:27:30.510Z,31.77
2018-03-02T03:30:11.389Z,36.90
2018-03-02T03:32:44.472Z,39.13
2018-03-02T03:35:22.052Z,36.42
2018-03-02T03:37:59.595Z,34.80
2018-03-02T03:40:39.054Z,34.03
2018-03-02T03:43:18.016Z,33.65
2018-03-02T03:45:57.480Z,28.60
2018-03-02T03:48:34.939Z,33.53
2018-03-02T03:51:16.596Z,34.15
2018-03-02T03:53:55.758Z,31.77
2018-03-02T03:56:34.071Z,51.55
2018-03-02T03:59:14.326Z,38.28
2018-03-02T04:01:54.093Z,44.72
2018-03-02T04:04:31.463Z,36.50
2018-03-02T04:07:09.046Z,37.25
2018-03-02T04:09:49.314Z,36.97
2018-03-02T04:12:31.747Z,35.38
2018-03-02T04:15:09.873Z,36.08
2018-03-02T04:17:48.061Z,35.47
2018-03-02T04:20:30.180Z,39.85
2018-03-02T04:23:07.947Z,38.85
2018-03-02T04:25:45.532Z,30.08
2018-03-02T04:28:22.655Z,44.25
2018-03-02T04:31:00.564Z,38.67
2018-03-02T04:33:40.224Z,36.33
2018-03-02T04:36:19.318Z,37.50
2018-03-02T04:38:56.617Z,36.88
2018-03-02T04:41:34.903Z,42.08
2018-03-02T04:44:13.471Z,38.33
2018-03-02T04:46:51.899Z,50.95
2018-03-02T04:49:29.348Z,46.70
2018-03-02T04:52:10.032Z,37.55
2018-03-02T04:54:48.992Z,36.65
2018-03-02T04:57:28.331Z,36.85
2018-03-02T05:00:06.179Z,26.23
2018-03-02T05:02:43.888Z,44.00
2018-03-02T05:05:22.602Z,35.13
2018-03-02T05:08:01.019Z,40.28
2018-03-02T05:10:39.939Z,43.90
2018-03-02T05:13:17.915Z,43.70
2018-03-02T05:15:53.219Z,28.45
2018-03-02T05:18:36.319Z,48.55
2018-03-02T05:21:17.679Z,41.80
2018-03-02T05:23:59.600Z,47.75
2018-03-02T05:26:38.831Z,43.35
2018-03-02T05:29:18.299Z,44.33
2018-03-02T05:31:55.012Z,39.45
2018-03-02T05:34:38.382Z,46.03
2018-03-02T05:37:19.237Z,47.50
2018-03-02T05:39:54.165Z,50.20
2018-03-02T05:42:31.640Z,45.17
2018-03-02T05:45:11.158Z,32.95
2018-03-02T05:47:47.463Z,36.50
2018-03-02T05:50:21.635Z,26.73
2018-03-02T05:52:58.267Z,23.75
2018-03-02T05:55:36.890Z,44.90
2018-03-02T05:58:14.509Z,41.65
2018-03-02T06:00:55.008Z,41.90
2018-03-02T06:03:34.018Z,40.12
2018-03-02T06:06:16.397Z,42.92
2018-03-02T06:08:56.117Z,44.88
2018-03-02T06:11:34.555Z,52.03
2018-03-02T06:14:08.963Z,45.95
2018-03-02T06:16:48.129Z,43.78
2018-03-02T06:19:26.951Z,42.28
2018-03-02T06:22:02.947Z,32.53
2018-03-02T06:24:42.139Z,49.42
2018-03-02T06:27:22.610Z,46.42
2018-03-02T06:30:02.435Z,41.55
2018-03-02T06:32:41.465Z,52.00
2018-03-02T06:35:21.062Z,43.67
2018-03-02T06:37:59.116Z,44.60
2018-03-02T06:40:39.915Z,38.55
2018-03-02T06:43:17.764Z,47.53
2018-03-02T06:45:57.140Z,31.20
2018-03-02T06:48:35.427Z,42.58
2018-03-02T06:51:10.367Z,44.67
2018-03-02T06:53:48.290Z,55.38
2018-03-02T06:56:26.911Z,50.53
2018-03-02T06:59:00.224Z,47.00
2018-03-02T07:01:38.643Z,41.22
2018-03-02T07:04:12.197Z,41.17
2018-03-02T07:06:51.446Z,57.35
2018-03-02T07:09:31.470Z,52.62
2018-03-02T07:12:10.016Z,48.72
2018-03-02T07:14:50.089Z,39.38
2018-03-02T07:17:23.822Z,49.00
2018-03-02T07:20:03.256Z,51.00
2018-03-02T07:22:42.928Z,46.72
2018-03-02T07:25:21.339Z,43.63
2018-03-02T07:28:00.546Z,45.72
2018-03-02T07:30:40.745Z,56.50
2018-03-02T07:33:20.514Z,43.08
2018-03-02T07:36:00.848Z,50.20
2018-03-02T07:38:34.995Z,60.28
2018-03-02T07:41:17.678Z,43.87
2018-03-02T07:43:54.894Z,51.17
2018-03-02T07:46:31.871Z,52.65
2018-03-02T07:49:12.006Z,39.47
2018-03-02T07:51:52.851Z,47.47
2018-03-02T07:54:31.111Z,40.58
2018-03-02T07:57:12.558Z,38.75
2018-03-02T07:59:53.936Z,49.85
2018-03-02T08:02:27.996Z,58.75
2018-03-02T08:05:07.178Z,51.05
2018-03-02T08:07:47.217Z,47.50
2018-03-02T08:10:27.248Z,40.80
2018-03-02T08:13:02.856Z,50.47
2018-03-02T08:15:41.540Z,49.03
2018-03-02T08:18:22.372Z,48.83
2018-03-02T08:21:03.008Z,45.10
2018-03-02T08:23:37.754Z,54.50
2018-03-02T08:26:16.819Z,49.50
2018-03-02T08:29:02.536Z,57.88
2018-03-02T08:31:37.219Z,57.70
2018-03-02T08:34:22.880Z,60.35
2018-03-02T08:37:04.886Z,65.20
2018-03-02T08:39:46.382Z,52.35
2018-03-02T08:42:24.916Z,62.25
2018-03-02T08:44:59.234Z,58.42
2018-03-02T08:47:38.946Z,55.72
2018-03-02T08:50:19.458Z,50.60
2018-03-02T08:52:59.251Z,47.00
2018-03-02T08:55:37.794Z,45.50
2018-03-02T08:58:19.506Z,48.42
2018-03-02T09:00:58.128Z,54.70
2018-03-02T09:03:32.242Z,51.15
2018-03-02T09:06:12.739Z,57.00
2018-03-02T09:08:50.308Z,55.70
2018-03-02T09:11:28.606Z,59.35
2018-03-02T09:14:05.301Z,58.80
2018-03-02T09:16:42.343Z,51.50
2018-03-02T09:19:23.864Z,61.50
2018-03-02T09:22:01.405Z,48.33
2018-03-02T09:24:38.756Z,59.92
2018-03-02T09:27:20.474Z,52.10
2018-03-02T09:30:02.623Z,61.37
2018-03-02T09:32:38.578Z,53.72
2018-03-02T09:35:15.902Z,57.62
2018-03-02T09:37:54.498Z,55.97
2018-03-02T09:40:33.563Z,66.20
2018-03-02T09:43:13.150Z,51.58
2018-03-02T09:45:48.527Z,50.90
2018-03-02T09:48:25.163Z,56.47
2018-03-02T09:51:01.950Z,58.40
2018-03-02T09:53:32.425Z,65.07
2018-03-02T09:56:08.328Z,58.17
2018-03-02T09:58:46.280Z,52.05
2018-03-02T10:01:22.835Z,64.93
2018-03-02T10:04:06.372Z,61.40
2018-03-02T10:06:43.461Z,58.60
2018-03-02T10:09:22.406Z,57.70
2018-03-02T10:12:01.262Z,61.33
2018-03-02T10:14:38.187Z,63.28
2018-03-02T10:17:13.933Z,47.58
2018-03-02T10:19:52.128Z,57.85
2018-03-02T10:22:31.757Z,52.22
2018-03-02T10:25:09.848Z,49.67
2018-03-02T10:27:47.527Z,56.50
2018-03-02T10:30:24.844Z,54.25
2018-03-02T10:33:01.812Z,58.13
2018-03-02T10:35:39.346Z,56.83
2018-03-02T10:38:16.916Z,64.75
2018-03-02T10:40:54.888Z,57.95
2018-03-02T10:43:32.155Z,59.60
2018-03-02T10:46:10.210Z,75.50
2018-03-02T10:48:47.384Z,52.13
2018-03-02T10:51:29.882Z,61.65
2018-03-02T10:54:06.150Z,63.97
2018-03-02T10:56:42.290Z,62.45
2018-03-02T10:59:18.631Z,66.43
2018-03-02T11:01:55.801Z,54.80
2018-03-02T11:04:31.851Z,56.90
2018-03-02T11:07:09.251Z,59.83
2018-03-02T11:09:45.674Z,60.80
2018-03-02T11:12:22.882Z,48.17
2018-03-02T11:14:59.930Z,60.17
2018-03-02T11:17:36.108Z,60.55
2018-03-02T11:20:12.483Z,49.03
2018-03-02T11:22:49.287Z,58.92
2018-03-02T11:25:32.743Z,66.82
2018-03-02T11:28:09.462Z,58.53
2018-03-02T11:30:46.613Z,62.67
2018-03-02T11:33:25.271Z,63.78
2018-03-02T11:36:03.245Z,58.10
2018-03-02T11:38:39.569Z,56.78
2018-03-02T11:41:16.983Z,56.03
2018-03-02T11:43:54.184Z,58.83
2018-03-02T11:46:32.435Z,59.45
2018-03-02T11:49:09.632Z,57.90
2018-03-02T11:51:52.453Z,63.67
2018-03-02T11:54:29.737Z,53.83
2018-03-02T11:57:06.154Z,58.80
2018-03-02T11:59:42.288Z,65.07
2018-03-02T12:02:19.107Z,51.45
2018-03-02T12:04:57.146Z,54.05
2018-03-02T12:07:38.226Z,52.15
2018-03-02T12:10:16.813Z,57.55
2018-03-02T12:12:54.388Z,65.28
2018-03-02T12:15:32.062Z,49.08
2018-03-02T12:18:08.764Z,54.03
2018-03-02T12:20:46.058Z,56.83
2018-03-02T12:23:24.328Z,58.83
2018-03-02T12:26:02.575Z,55.88
2018-03-02T12:28:39.461Z,57.88
2018-03-02T12:31:16.410Z,57.42
2018-03-02T12:33:53.846Z,67.75
2018-03-02T12:36:32.015Z,54.53
2018-03-02T12:39:09.945Z,64.43
2018-03-02T12:41:49.146Z,53.60
2018-03-02T12:44:27.213Z,66.20
2018-03-02T12:47:04.073Z,54.80
2018-03-02T12:49:44.344Z,64.05
2018-03-02T12:52:21.777Z,63.72
2018-03-02T12:54:57.629Z,53.08
2018-03-02T12:57:35.550Z,59.38
2018-03-02T13:00:12.913Z,53.45
2018-03-02T13:02:52.115Z,64.55
2018-03-02T13:05:28.521Z,58.38
2018-03-02T13:08:08.970Z,50.28
2018-03-02T13:10:47.654Z,59.47
2018-03-02T13:13:23.338Z,56.72
2018-03-02T13:16:04.193Z,58.25
2018-03-02T13:18:51.652Z,57.83
2018-03-02T13:21:31.774Z,65.40
2018-03-02T13:24:11.177Z,58.05
2018-03-02T13:26:58.454Z,62.70
2018-03-02T13:29:41.108Z,56.92
2018-03-02T13:32:20.087Z,57.42
2018-03-02T13:35:07.735Z,53.65
2018-03-02T13:37:44.915Z,65.30
2018-03-02T13:40:32.188Z,64.43
2018-03-02T13:43:02.487Z,52.88
2018-03-02T13:45:40.384Z,59.58
2018-03-02T13:48:22.344Z,61.25
2018-03-02T13:51:01.087Z,87.32
2018-03-02T13:53:37.973Z,64.55
2018-03-02T13:56:20.727Z,60.15
2018-03-02T13:58:57.791Z,58.85
2018-03-02T14:01:41.324Z,50.38
2018-03-02T14:04:28.149Z,48.15
2018-03-02T14:07:07.967Z,55.80
2018-03-02T14:09:43.558Z,72.82
2018-03-02T14:12:20.908Z,54.90
2018-03-02T14:14:56.322Z,65.32
2018-03-02T14:17:38.548Z,52.00
2018-03-02T14:20:17.653Z,59.38
2018-03-02T14:22:55.269Z,65.68
2018-03-02T14:25:32.877Z,56.90
2018-03-02T14:28:10.835Z,56.50
2018-03-02T14:30:47.503Z,70.90
2018-03-02T14:33:24.839Z,59.25
2018-03-02T14:36:01.548Z,65.07
2018-03-02T14:38:38.802Z,55.75
2018-03-02T14:41:18.366Z,55.20
2018-03-02T14:43:54.059Z,67.22
2018-03-02T14:46:31.702Z,55.33
2018-03-02T14:49:09.151Z,67.72
2018-03-02T14:51:47.459Z,58.47
2018-03-02T14:54:27.768Z,51.78
2018-03-02T14:57:05.312Z,50.85
2018-03-02T14:59:44.774Z,64.20
2018-03-02T15:02:22.183Z,57.58
2018-03-02T15:04:58.401Z,56.97
2018-03-02T15:07:36.123Z,52.72
2018-03-02T15:10:14.120Z,60.08
2018-03-02T15:12:51.374Z,64.00
2018-03-02T15:15:29.264Z,62.83
2018-03-02T15:18:05.297Z,58.17
2018-03-02T15:20:41.655Z,65.72
2018-03-02T15:23:17.672Z,63.83
2018-03-02T15:25:56.224Z,57.08
2018-03-02T15:28:32.696Z,64.70
2018-03-02T15:31:10.297Z,56.22
2018-03-02T15:33:47.542Z,66.60
2018-03-02T15:36:27.718Z,59.55
2018-03-02T15:39:05.404Z,71.72
2018-03-02T15:41:44.771Z,61.50
2018-03-02T15:44:22.292Z,53.92
2018-03-02T15:46:59.591Z,61.30
2018-03-02T15:49:36.569Z,54.00
2018-03-02T15:52:14.765Z,59.38
2018-03-02T15:54:51.860Z,63.03
2018-03-02T15:57:31.355Z,72.45
2018-03-02T16:00:07.445Z,61.85
2018-03-02T16:02:46.132Z,58.53
2018-03-02T16:05:21.785Z,67.43
2018-03-02T16:07:59.475Z,57.65
2018-03-02T16:10:37.140Z,66.15
2018-03-02T16:13:13.271Z,63.08
2018-03-02T16:15:51.948Z,54.90
2018-03-02T16:18:28.894Z,57.55
2018-03-02T16:21:08.942Z,55.40
2018-03-02T16:23:45.049Z,55.35
2018-03-02T16:26:22.471Z,55.53
2018-03-02T16:29:01.572Z,51.70
2018-03-02T16:31:38.675Z,52.42
2018-03-02T16:34:15.981Z,59.40
2018-03-02T16:36:54.109Z,72.28
2018-03-02T16:39:33.629Z,66.85
2018-03-02T16:42:11.335Z,59.58
2018-03-02T16:44:47.495Z,60.15
2018-03-02T16:47:26.738Z,55.33
2018-03-02T16:50:04.118Z,56.63
2018-03-02T16:52:40.114Z,51.40
2018-03-02T16:55:16.563Z,59.53
2018-03-02T16:57:58.694Z,49.50
2018-03-02T17:00:37.973Z,54.30
2018-03-02T17:03:16.069Z,57.55
2018-03-02T17:05:53.472Z,62.28
2018-03-02T17:08:31.130Z,58.30
2018-03-02T17:11:09.948Z,54.78
2018-03-02T17:13:46.566Z,49.38
2018-03-02T17:16:16.639Z,60.38
2018-03-02T17:18:53.996Z,55.42
2018-03-02T17:21:31.041Z,54.53
2018-03-02T17:24:08.347Z,67.12
2018-03-02T17:26:47.870Z,64.95
2018-03-02T17:29:25.131Z,61.83
2018-03-02T17:32:00.456Z,52.97
2018-03-02T17:34:36.283Z,51.63
2018-03-02T17:37:12.084Z,62.55
2018-03-02T17:39:49.585Z,65.50
2018-03-02T17:42:26.195Z,63.47
2018-03-02T17:45:04.005Z,69.60
2018-03-02T17:47:40.611Z,67.97
2018-03-02T17:50:16.486Z,56.22
2018-03-02T17:52:55.212Z,56.80
2018-03-02T17:55:33.360Z,58.30
2018-03-02T17:58:10.972Z,63.17
2018-03-02T18:00:48.082Z,65.93
2018-03-02T18:03:26.191Z,61.05
2018-03-02T18:06:04.156Z,69.18
2018-03-02T18:08:40.359Z,62.42
2018-03-02T18:11:16.965Z,63.70
2018-03-02T18:13:58.989Z,64.97
2018-03-02T18:16:36.621Z,71.07
2018-03-02T18:19:13.699Z,61.40
2018-03-02T18:21:50.516Z,68.90
2018-03-02T18:24:27.719Z,63.85
2018-03-02T18:27:04.901Z,68.45
2018-03-02T18:29:42.682Z,71.47
2018-03-02T18:32:18.087Z,77.30
2018-03-02T18:34:56.055Z,60.17
2018-03-02T18:37:33.301Z,62.03
2018-03-02T18:40:10.646Z,66.50
2018-03-02T18:42:47.480Z,71.65
2018-03-02T18:45:30.045Z,71.05
2018-03-02T18:48:05.750Z,70.03
2018-03-02T18:50:43.091Z,66.03
2018-03-02T18:53:21.265Z,65.28
2018-03-02T18:55:58.542Z,66.82
2018-03-02T18:58:34.084Z,67.90
2018-03-02T19:01:11.803Z,60.30
2018-03-02T19:03:48.873Z,72.30
2018-03-02T19:06:25.778Z,71.37
2018-03-02T19:09:04.834Z,72.22
2018-03-02T19:11:43.417Z,79.18
2018-03-02T19:14:20.778Z,77.00
2018-03-02T19:16:56.025Z,88.62
2018-03-02T19:19:34.340Z,76.12
2018-03-02T19:22:10.249Z,86.10
2018-03-02T19:24:47.251Z,82.75
2018-03-02T19:27:29.649Z,79.90
2018-03-02T19:30:07.788Z,97.18
2018-03-02T19:32:45.553Z,91.47
2018-03-02T19:35:23.542Z,87.47
2018-03-02T19:38:03.367Z,78.22
2018-03-02T19:40:41.458Z,85.80
2018-03-02T19:43:18.473Z,95.75
2018-03-02T19:45:55.479Z,95.35
2018-03-02T19:48:31.861Z,89.13
2018-03-02T19:51:08.944Z,85.75
2018-03-02T19:53:44.706Z,92.37
2018-03-02T19:56:22.223Z,90.30
2018-03-02T19:59:00.484Z,102.22
2018-03-02T20:01:42.156Z,104.20
2018-03-02T20:04:19.067Z,93.57
2018-03-02T20:07:01.249Z,101.78
2018-03-02T20:09:38.481Z,98.28
2018-03-02T20:12:14.205Z,103.53
2018-03-02T20:14:51.796Z,106.55
2018-03-02T20:17:26.906Z,97.10
2018-03-02T20:20:05.571Z,104.20
2018-03-02T20:22:42.158Z,102.15
2018-03-02T20:25:18.714Z,103.72
2018-03-02T20:27:55.289Z,118.35
2018-03-02T20:30:33.201Z,88.40
2018-03-02T20:33:11.601Z,106.80
2018-03-02T20:35:47.401Z,105.30
2018-03-02T20:38:23.490Z,113.68
2018-03-02T20:41:02.161Z,117.07
2018-03-02T20:43:39.059Z,110.43
2018-03-02T20:46:14.360Z,133.52
2018-03-02T20:48:50.902Z,114.55
2018-03-02T20:51:28.002Z,124.93
2018-03-02T20:53:59.032Z,132.63
2018-03-02T20:56:35.221Z,132.15
2018-03-02T20:59:10.660Z,142.48
2018-03-02T21:01:48.212Z,136.50
2018-03-02T21:04:25.400Z,152.50
2018-03-02T21:07:00.905Z,147.82
2018-03-02T21:09:38.795Z,156.35
2018-03-02T21:12:14.448Z,135.23
2018-03-02T21:14:52.915Z,140.80
2018-03-02T21:17:31.353Z,141.93
2018-03-02T21:20:08.584Z,146.62
2018-03-02T21:22:46.469Z,134.43
2018-03-02T21:25:22.987Z,133.35
2018-03-02T21:28:02.274Z,143.50
2018-03-02T21:30:41.538Z,157.65
2018-03-02T21:33:19.144Z,156.32
2018-03-02T21:35:54.994Z,155.73
2018-03-02T21:38:32.106Z,147.68
2018-03-02T21:41:11.446Z,154.98
2018-03-02T21:43:48.869Z,153.82
2018-03-02T21:46:26.464Z,152.40
2018-03-02T21:49:06.907Z,184.43
2018-03-02T21:51:44.047Z,161.93
2018-03-02T21:54:23.354Z,170.18
2018-03-02T21:57:00.484Z,182.15
2018-03-02T21:59:37.538Z,158.93
2018-03-02T22:02:15.453Z,186.12
2018-03-02T22:04:51.336Z,174.77
2018-03-02T22:07:27.076Z,170.82
2018-03-02T22:10:02.997Z,171.25
2018-03-02T22:12:41.426Z,159.27
2018-03-02T22:15:18.038Z,172.23
2018-03-02T22:17:56.193Z,172.65
2018-03-02T22:20:34.090Z,167.13
2018-03-02T22:23:10.076Z,169.68
2018-03-02T22:25:45.878Z,174.62
2018-03-02T22:28:22.803Z,176.45
2018-03-02T22:30:58.859Z,144.85
2018-03-02T22:33:35.729Z,172.07
2018-03-02T22:36:14.169Z,177.60
2018-03-02T22:38:51.233Z,147.15
2018-03-02T22:41:26.925Z,167.80
2018-03-02T22:43:57.120Z,173.98
2018-03-02T22:46:33.851Z,182.70
2018-03-02T22:49:09.750Z,176.98
2018-03-02T22:51:46.362Z,167.37
2018-03-02T22:54:22.454Z,149.65
2018-03-02T22:57:04.718Z,157.02
2018-03-02T22:59:42.481Z,134.07
2018-03-02T23:02:17.728Z,148.35
2018-03-02T23:04:56.719Z,140.73
2018-03-02T23:07:34.211Z,155.43
2018-03-02T23:10:10.786Z,168.70
2018-03-02T23:12:47.197Z,159.43
2018-03-02T23:15:24.516Z,152.70
2018-03-02T23:18:00.835Z,184.40
2018-03-02T23:20:36.861Z,165.40
2018-03-02T23:23:14.433Z,173.43
2018-03-02T23:25:53.962Z,158.15
2018-03-02T23:28:31.163Z,161.18
2018-03-02T23:31:07.837Z,175.02
2018-03-02T23:33:45.057Z,178.93
2018-03-02T23:36:20.541Z,169.20
2018-03-02T23:38:58.232Z,183.40
2018-03-02T23:41:36.601Z,170.45
2018-03-02T23:44:14.628Z,172.00
2018-03-02T23:46:52.794Z,154.93
2018-03-02T23:49:28.444Z,138.18
2018-03-02T23:52:05.939Z,172.45
2018-03-02T23:54:41.528Z,180.57
2018-03-02T23:57:18.670Z,152.48
2018-03-02T23:59:56.178Z,159.12
